Time;durP1;ratioP1;P1;durP2;ratioP2;P2;SDS_P1;SDS_P2;PMS_P1;PMS_P2;Temp;Humidity;BMP_temperature;BMP_pressure;BME280_temperature;BME280_humidity;BME280_pressure;Samples;Min_cycle;Max_cycle;Signal;HPM_P1;HPM_P2
2021/07/12 00:02:06;;;;;;;4.70;2.50;;;18.10;99.90;;;;;;4933595;29;20179;-61
2021/07/12 00:04:32;;;;;;;3.67;2.70;;;17.90;99.90;;;;;;4937403;29;21022;-63
2021/07/12 00:06:57;;;;;;;3.93;2.90;;;18.00;99.90;;;;;;4937730;29;20171;-61
2021/07/12 00:09:23;;;;;;;3.73;3.43;;;18.00;99.90;;;;;;4937694;29;20174;-63
2021/07/12 00:11:48;;;;;;;2.97;2.67;;;17.90;99.90;;;;;;4937678;29;20167;-60
2021/07/12 00:14:14;;;;;;;2.87;2.67;;;17.90;99.90;;;;;;4937449;29;20265;-61
2021/07/12 00:16:40;;;;;;;3.17;2.83;;;17.90;99.90;;;;;;4936817;29;20193;-61
2021/07/12 00:19:06;;;;;;;3.47;2.80;;;17.90;99.90;;;;;;4937505;29;20175;-61
2021/07/12 00:21:32;;;;;;;3.67;3.37;;;18.00;99.90;;;;;;4938333;29;20510;-61
2021/07/12 00:23:58;;;;;;;3.00;2.80;;;18.00;99.90;;;;;;4947745;29;20457;-61
2021/07/12 00:26:23;;;;;;;2.57;2.37;;;18.00;99.90;;;;;;4956252;28;20658;-61
2021/07/12 00:28:50;;;;;;;3.43;3.23;;;17.90;99.90;;;;;;4956232;29;20166;-61
2021/07/12 00:31:16;;;;;;;3.20;3.00;;;17.90;99.90;;;;;;4956444;29;20220;-61
2021/07/12 00:33:42;;;;;;;3.33;3.03;;;17.90;99.90;;;;;;4955722;29;20402;-61
2021/07/12 00:36:08;;;;;;;3.07;2.80;;;17.90;99.90;;;;;;4955938;28;20206;-61
2021/07/12 00:38:34;;;;;;;5.83;3.50;;;17.90;99.90;;;;;;4955806;29;20519;-61
2021/07/12 00:40:59;;;;;;;3.50;3.30;;;17.90;99.90;;;;;;4956014;29;20406;-61
2021/07/12 00:43:25;;;;;;;3.23;2.93;;;17.80;99.90;;;;;;4955884;29;20456;-61
2021/07/12 00:45:52;;;;;;;3.00;2.70;;;17.80;99.90;;;;;;4955227;28;20249;-61
2021/07/12 00:48:18;;;;;;;3.10;2.90;;;17.80;99.90;;;;;;4956107;29;20162;-61
2021/07/12 00:50:44;;;;;;;3.07;2.77;;;17.80;99.90;;;;;;4954211;29;20429;-61
2021/07/12 00:53:11;;;;;;;3.07;2.87;;;17.80;99.90;;;;;;4955751;29;20416;-60
2021/07/12 00:55:44;;;;;;;4.23;3.10;;;17.80;99.90;;;;;;4956094;28;20508;-61
2021/07/12 00:58:21;;;;;;;3.40;2.90;;;17.80;99.90;;;;;;4955747;29;20424;-61
2021/07/12 01:00:50;;;;;;;3.30;3.10;;;17.80;99.90;;;;;;4956119;29;20910;-61
2021/07/12 01:03:17;;;;;;;3.03;2.83;;;17.70;99.90;;;;;;4947693;29;20446;-61
2021/07/12 01:05:44;;;;;;;3.73;3.43;;;17.70;99.90;;;;;;4936355;29;20486;-61
2021/07/12 01:08:10;;;;;;;3.40;3.10;;;17.60;99.90;;;;;;4935004;29;20463;-61
2021/07/12 01:10:36;;;;;;;3.27;2.97;;;17.60;99.90;;;;;;4936642;29;20444;-61
2021/07/12 01:13:16;;;;;;;3.33;2.97;;;17.60;99.90;;;;;;4936120;29;20407;-60
2021/07/12 01:16:17;;;;;;;2.80;2.60;;;17.50;99.90;;;;;;4936564;29;20787;-60
2021/07/12 01:18:51;;;;;;;3.10;2.90;;;17.50;99.90;;;;;;4936272;29;20978;-60
2021/07/12 01:21:47;;;;;;;3.30;3.00;;;17.50;99.90;;;;;;4948079;29;20427;-61
2021/07/12 01:24:58;;;;;;;3.30;3.07;;;17.50;99.90;;;;;;4955228;29;20823;-60
2021/07/12 01:28:08;;;;;;;2.90;2.70;;;17.50;99.90;;;;;;4954127;29;20899;-60
2021/07/12 01:31:14;;;;;;;2.90;2.60;;;17.40;99.90;;;;;;4940482;29;20460;-60
2021/07/12 01:33:55;;;;;;;4.07;2.97;;;17.40;99.90;;;;;;4955146;29;20400;-60
2021/07/12 01:36:33;;;;;;;3.93;2.90;;;17.40;99.90;;;;;;4964632;23;20505;-65
2021/07/12 01:39:04;;;;;;;3.00;2.80;;;17.40;99.90;;;;;;4928487;29;20854;-64
2021/07/12 01:41:41;;;;;;;3.80;3.50;;;17.40;99.90;;;;;;4935286;29;20430;-65
2021/07/12 01:44:19;;;;;;;4.67;2.90;;;17.30;99.90;;;;;;4935959;29;20464;-64
2021/07/12 01:46:50;;;;;;;2.60;2.40;;;17.20;99.90;;;;;;4935151;29;20434;-64
2021/07/12 01:49:29;;;;;;;3.50;3.07;;;17.30;99.90;;;;;;4936125;29;20790;-64
2021/07/12 01:52:09;;;;;;;3.37;3.07;;;17.10;99.90;;;;;;4934184;29;20437;-64
2021/07/12 01:54:49;;;;;;;5.47;3.50;;;17.20;99.90;;;;;;4936379;29;20426;-65
2021/07/12 01:57:26;;;;;;;3.97;2.90;;;17.20;99.90;;;;;;4938961;29;20850;-65
2021/07/12 01:59:59;;;;;;;3.63;3.20;;;17.20;99.90;;;;;;4940393;29;20912;-65
2021/07/12 02:02:28;;;;;;;3.17;2.87;;;17.20;99.90;;;;;;4940400;29;20398;-65
2021/07/12 02:04:56;;;;;;;3.10;2.80;;;17.20;99.90;;;;;;4940092;29;20445;-65
2021/07/12 02:07:23;;;;;;;3.47;3.27;;;17.00;99.90;;;;;;4939824;29;20433;-66
2021/07/12 02:09:50;;;;;;;3.47;3.00;;;17.00;99.90;;;;;;4940608;29;20408;-65
2021/07/12 02:12:17;;;;;;;4.90;3.27;;;17.10;99.90;;;;;;4939851;29;20935;-66
2021/07/12 02:14:43;;;;;;;3.20;2.90;;;17.10;99.90;;;;;;4939833;29;20899;-66
2021/07/12 02:17:11;;;;;;;3.10;2.50;;;17.10;99.90;;;;;;4939790;29;20505;-64
2021/07/12 02:19:39;;;;;;;3.80;2.53;;;17.10;99.90;;;;;;4940019;29;20425;-65
2021/07/12 02:22:05;;;;;;;3.50;3.20;;;17.10;99.90;;;;;;4939343;29;20418;-66
2021/07/12 02:24:32;;;;;;;2.90;2.70;;;17.10;99.90;;;;;;4939613;29;20456;-65
2021/07/12 02:26:59;;;;;;;3.37;3.07;;;17.10;99.90;;;;;;4939458;29;20518;-64
2021/07/12 02:29:26;;;;;;;4.90;3.37;;;17.00;99.90;;;;;;4939650;29;20406;-64
2021/07/12 02:31:53;;;;;;;3.20;2.80;;;17.00;99.90;;;;;;4939664;29;20410;-64
2021/07/12 02:34:19;;;;;;;3.53;3.23;;;17.00;99.90;;;;;;4938370;29;20426;-66
2021/07/12 02:36:47;;;;;;;3.37;3.13;;;17.10;99.90;;;;;;4939407;29;20449;-66
2021/07/12 02:39:14;;;;;;;3.50;3.20;;;17.00;99.90;;;;;;4939624;29;20424;-65
2021/07/12 02:41:42;;;;;;;3.10;2.90;;;16.90;99.90;;;;;;4939824;29;20494;-65
2021/07/12 02:44:11;;;;;;;3.43;3.13;;;16.80;99.90;;;;;;4939578;29;20453;-65
2021/07/12 02:46:39;;;;;;;3.13;2.90;;;16.80;99.90;;;;;;4939175;29;20433;-64
2021/07/12 02:49:05;;;;;;;3.33;3.00;;;16.90;99.90;;;;;;4938656;29;20759;-64
2021/07/12 02:51:56;;;;;;;3.30;3.07;;;16.90;99.90;;;;;;4939674;29;20410;-65
2021/07/12 02:54:27;;;;;;;2.50;2.30;;;16.90;99.90;;;;;;4934092;29;20436;-65
2021/07/12 02:56:52;;;;;;;3.00;2.80;;;16.80;99.90;;;;;;4939505;29;20516;-65
2021/07/12 02:59:18;;;;;;;2.97;2.50;;;16.80;99.90;;;;;;4939338;29;20956;-65
2021/07/12 03:01:44;;;;;;;3.20;2.93;;;16.80;99.90;;;;;;4939447;29;20170;-64
2021/07/12 03:04:10;;;;;;;2.93;2.73;;;16.90;99.90;;;;;;4938340;29;20457;-65
2021/07/12 03:06:35;;;;;;;2.43;2.23;;;16.90;99.90;;;;;;4938995;29;20196;-65
2021/07/12 03:09:06;;;;;;;2.73;2.53;;;16.90;99.90;;;;;;4938104;29;20659;-64
2021/07/12 03:11:46;;;;;;;3.00;2.80;;;16.90;99.90;;;;;;4939102;29;20526;-65
2021/07/12 03:14:20;;;;;;;3.03;2.77;;;16.90;99.90;;;;;;4953666;29;20421;-64
2021/07/12 03:16:49;;;;;;;3.23;2.93;;;16.90;99.90;;;;;;4938927;29;20433;-65
2021/07/12 03:19:25;;;;;;;3.60;2.83;;;16.90;99.90;;;;;;4938418;29;20442;-64
2021/07/12 03:21:53;;;;;;;3.00;2.63;;;16.80;99.90;;;;;;4938942;29;20413;-64
2021/07/12 03:24:20;;;;;;;3.40;3.10;;;16.70;99.90;;;;;;4938530;29;20487;-64
2021/07/12 03:26:47;;;;;;;3.60;2.33;;;16.80;99.90;;;;;;4938809;29;20433;-65
2021/07/12 03:29:13;;;;;;;3.00;2.80;;;16.80;99.90;;;;;;4939267;29;20433;-65
2021/07/12 03:31:40;;;;;;;2.43;2.20;;;16.80;99.90;;;;;;4938645;29;20783;-65
2021/07/12 03:34:10;;;;;;;3.00;2.80;;;16.80;99.90;;;;;;4938056;29;20462;-65
2021/07/12 03:36:36;;;;;;;2.83;2.63;;;16.80;99.90;;;;;;4938617;29;20530;-65
2021/07/12 03:39:03;;;;;;;3.07;2.87;;;16.80;99.90;;;;;;4938833;29;20452;-64
2021/07/12 03:41:29;;;;;;;3.60;2.50;;;16.80;99.90;;;;;;4938738;29;20413;-64
2021/07/12 03:43:55;;;;;;;3.53;3.10;;;16.80;99.90;;;;;;4938493;29;20870;-64
2021/07/12 03:46:21;;;;;;;2.57;2.37;;;16.70;99.90;;;;;;4938464;29;20428;-64
2021/07/12 03:48:47;;;;;;;2.80;2.60;;;16.80;99.90;;;;;;4938257;29;20257;-65
2021/07/12 03:51:28;;;;;;;3.27;3.00;;;16.80;99.90;;;;;;4937984;29;20181;-64
2021/07/12 03:53:54;;;;;;;2.70;2.50;;;16.80;99.90;;;;;;4938320;29;20402;-65
2021/07/12 03:56:20;;;;;;;2.87;2.67;;;16.80;99.90;;;;;;4938015;29;20977;-64
2021/07/12 03:58:46;;;;;;;4.30;2.70;;;16.90;99.90;;;;;;4938258;29;20432;-65
2021/07/12 04:01:20;;;;;;;2.70;2.50;;;16.90;99.90;;;;;;4938000;29;20498;-66
2021/07/12 04:03:50;;;;;;;2.80;2.60;;;16.90;99.90;;;;;;4937773;29;20446;-65
2021/07/12 04:06:16;;;;;;;3.27;3.07;;;17.00;99.90;;;;;;4936590;29;20533;-65
2021/07/12 04:08:42;;;;;;;2.90;2.70;;;16.90;99.90;;;;;;4937435;29;20438;-65
2021/07/12 04:11:10;;;;;;;3.10;2.90;;;16.90;99.90;;;;;;4938033;29;20469;-65
2021/07/12 04:13:35;;;;;;;2.67;2.47;;;16.90;99.90;;;;;;4937849;29;20589;-65
2021/07/12 04:16:01;;;;;;;3.67;3.33;;;16.80;99.90;;;;;;4937812;29;20441;-64
2021/07/12 04:18:27;;;;;;;3.20;2.90;;;16.80;99.90;;;;;;4937880;29;20228;-65
2021/07/12 04:20:53;;;;;;;4.83;3.93;;;16.80;99.90;;;;;;4936491;29;20214;-65
2021/07/12 04:23:18;;;;;;;2.90;2.60;;;16.80;99.90;;;;;;4937139;29;20193;-65
2021/07/12 04:25:44;;;;;;;2.63;2.43;;;16.80;99.90;;;;;;4937738;29;20249;-64
2021/07/12 04:28:10;;;;;;;3.40;3.13;;;16.80;99.90;;;;;;4936758;29;20174;-64
2021/07/12 04:30:35;;;;;;;2.90;2.70;;;16.80;99.90;;;;;;4930995;29;20176;-64
2021/07/12 04:33:01;;;;;;;3.13;2.93;;;16.80;99.90;;;;;;4919562;29;20172;-64
2021/07/12 04:35:27;;;;;;;3.50;2.70;;;16.90;99.90;;;;;;4937241;29;20213;-65
2021/07/12 04:37:53;;;;;;;2.57;2.37;;;16.90;99.90;;;;;;4937356;29;20760;-63
2021/07/12 04:40:19;;;;;;;3.23;2.93;;;16.90;99.90;;;;;;4937687;29;20414;-64
2021/07/12 04:42:45;;;;;;;5.20;3.60;;;16.90;99.90;;;;;;4937768;29;20206;-64
2021/07/12 04:45:11;;;;;;;3.50;3.20;;;16.90;99.90;;;;;;4937264;29;20489;-64
2021/07/12 04:47:37;;;;;;;3.37;2.50;;;16.90;99.90;;;;;;4937035;29;20777;-64
2021/07/12 04:50:04;;;;;;;3.57;2.83;;;16.90;99.90;;;;;;4936645;29;20505;-64
2021/07/12 04:52:30;;;;;;;3.53;3.23;;;17.00;99.90;;;;;;4937151;29;20178;-64
2021/07/12 04:54:55;;;;;;;2.90;2.70;;;17.10;99.90;;;;;;4937041;29;20418;-64
2021/07/12 04:57:21;;;;;;;3.43;2.90;;;17.20;99.90;;;;;;4936823;29;20274;-65
2021/07/12 04:59:47;;;;;;;5.33;2.87;;;17.30;99.90;;;;;;4936861;29;20214;-65
2021/07/12 05:02:13;;;;;;;2.87;2.67;;;17.30;99.90;;;;;;4936855;29;20173;-65
2021/07/12 05:04:40;;;;;;;3.73;3.43;;;17.40;99.90;;;;;;4936028;29;20458;-64
2021/07/12 05:07:06;;;;;;;3.77;3.47;;;17.50;99.90;;;;;;4936601;29;20430;-64
2021/07/12 05:09:32;;;;;;;3.50;3.10;;;17.60;99.90;;;;;;4936711;29;20418;-64
2021/07/12 05:11:58;;;;;;;3.73;3.03;;;17.60;99.90;;;;;;4936237;29;20531;-64
2021/07/12 05:14:25;;;;;;;3.60;3.30;;;17.70;99.90;;;;;;4936558;29;20413;-64
2021/07/12 05:16:52;;;;;;;3.27;2.73;;;17.80;99.90;;;;;;4936350;29;20206;-64
2021/07/12 05:19:18;;;;;;;3.73;3.33;;;17.90;99.90;;;;;;4936015;29;20877;-64
2021/07/12 05:21:44;;;;;;;3.10;2.90;;;18.00;99.90;;;;;;4936386;29;20454;-66
2021/07/12 05:24:10;;;;;;;3.83;3.53;;;18.10;99.90;;;;;;4934721;29;20482;-65
2021/07/12 05:26:35;;;;;;;3.00;2.80;;;18.10;99.90;;;;;;4934813;29;20683;-63
2021/07/12 05:29:01;;;;;;;3.80;3.07;;;18.20;99.90;;;;;;4936332;29;20532;-66
2021/07/12 05:31:27;;;;;;;4.00;3.60;;;18.40;99.90;;;;;;4935804;29;20175;-66
2021/07/12 05:33:52;;;;;;;4.00;3.00;;;18.40;99.90;;;;;;4935358;29;20174;-64
2021/07/12 05:36:18;;;;;;;3.30;3.00;;;18.50;99.90;;;;;;4935872;29;20218;-66
2021/07/12 05:38:44;;;;;;;4.07;3.00;;;18.60;99.90;;;;;;4935339;29;20595;-66
2021/07/12 05:41:10;;;;;;;5.40;3.87;;;18.70;99.90;;;;;;4935986;29;20170;-64
2021/07/12 05:43:36;;;;;;;2.97;2.67;;;18.70;99.90;;;;;;4935906;29;20202;-64
2021/07/12 05:46:03;;;;;;;3.00;2.60;;;18.90;99.90;;;;;;4936022;29;20450;-65
2021/07/12 05:48:28;;;;;;;3.40;3.03;;;18.90;99.90;;;;;;4934531;29;20174;-65
2021/07/12 05:50:54;;;;;;;6.30;3.67;;;19.10;99.90;;;;;;4936098;29;20406;-64
2021/07/12 05:53:20;;;;;;;5.90;3.00;;;19.00;99.90;;;;;;4936138;29;20170;-64
2021/07/12 05:55:45;;;;;;;3.40;2.60;;;19.20;99.90;;;;;;4934560;29;20191;-65
2021/07/12 05:58:11;;;;;;;3.83;2.70;;;19.30;99.90;;;;;;4936227;29;20202;-65
2021/07/12 06:00:37;;;;;;;3.73;2.50;;;19.30;99.90;;;;;;4935977;29;20179;-65
2021/07/12 06:03:03;;;;;;;2.87;2.40;;;19.50;99.90;;;;;;4936088;29;20175;-65
2021/07/12 06:05:28;;;;;;;2.60;2.40;;;19.40;99.90;;;;;;4935556;29;20245;-64
2021/07/12 06:07:54;;;;;;;4.10;2.47;;;19.50;99.90;;;;;;4935016;29;20750;-64
2021/07/12 06:10:20;;;;;;;2.50;2.30;;;19.70;99.90;;;;;;4935639;29;20213;-65
2021/07/12 06:12:46;;;;;;;4.63;3.47;;;19.90;99.90;;;;;;4935592;29;20171;-64
2021/07/12 06:15:12;;;;;;;4.97;3.33;;;19.90;99.90;;;;;;4935925;29;20178;-65
2021/07/12 06:17:38;;;;;;;3.87;3.03;;;20.10;99.90;;;;;;4935683;29;20927;-64
2021/07/12 06:20:06;;;;;;;3.47;3.17;;;20.30;99.90;;;;;;4935366;29;20415;-65
2021/07/12 06:22:32;;;;;;;2.00;1.83;;;20.60;99.90;;;;;;4935765;29;20469;-64
2021/07/12 06:24:57;;;;;;;6.30;2.90;;;20.60;99.90;;;;;;4935592;29;20482;-65
2021/07/12 06:27:23;;;;;;;2.60;2.40;;;20.60;99.90;;;;;;4935420;29;20187;-65
2021/07/12 06:29:49;;;;;;;3.43;2.20;;;20.60;99.90;;;;;;4936239;29;20581;-65
2021/07/12 06:32:14;;;;;;;3.70;2.57;;;20.70;99.90;;;;;;4935637;29;20178;-64
2021/07/12 06:34:40;;;;;;;2.00;1.83;;;20.90;99.90;;;;;;4934266;29;20254;-64
2021/07/12 06:37:05;;;;;;;2.43;2.23;;;20.90;99.90;;;;;;4935887;29;20811;-64
2021/07/12 06:39:31;;;;;;;2.03;1.80;;;20.80;99.90;;;;;;4936133;29;20219;-64
2021/07/12 06:41:57;;;;;;;4.03;2.00;;;20.80;99.90;;;;;;4935507;29;20214;-65
2021/07/12 06:44:22;;;;;;;4.67;2.20;;;20.70;99.90;;;;;;4938413;29;20194;-65
2021/07/12 06:46:48;;;;;;;3.17;2.70;;;20.60;99.90;;;;;;4939220;29;20195;-65
2021/07/12 06:49:13;;;;;;;3.40;3.17;;;20.70;99.90;;;;;;4938561;29;20269;-66
2021/07/12 06:51:39;;;;;;;4.43;2.73;;;21.00;99.90;;;;;;4939223;29;20543;-65
2021/07/12 06:54:05;;;;;;;4.03;1.77;;;21.30;99.90;;;;;;4939040;29;20549;-65
2021/07/12 06:56:31;;;;;;;2.80;2.00;;;21.50;99.90;;;;;;4939232;29;20233;-65
2021/07/12 06:58:57;;;;;;;1.90;1.80;;;21.40;99.90;;;;;;4938997;29;20262;-65
2021/07/12 07:01:23;;;;;;;3.90;2.40;;;21.60;99.90;;;;;;4938660;29;20505;-65
2021/07/12 07:03:48;;;;;;;3.50;2.47;;;21.80;99.90;;;;;;4933109;29;20258;-65
2021/07/12 07:06:14;;;;;;;1.80;1.70;;;21.90;99.90;;;;;;4936737;29;20373;-65
2021/07/12 07:08:40;;;;;;;2.13;1.93;;;21.90;99.90;;;;;;4939162;29;20704;-65
2021/07/12 07:11:05;;;;;;;2.07;1.80;;;22.20;99.90;;;;;;4939462;29;20258;-66
2021/07/12 07:13:31;;;;;;;1.90;1.70;;;22.60;99.90;;;;;;4937587;29;20170;-65
2021/07/12 07:15:57;;;;;;;2.50;1.93;;;22.80;99.90;;;;;;4938686;29;20241;-66
2021/07/12 07:20:52;;;;;;;3.27;2.03;;;21.90;99.90;;;;;;4933718;29;20622;-61
2021/07/12 07:23:17;;;;;;;2.70;2.50;;;21.80;99.90;;;;;;4937277;29;20414;-61
2021/07/12 07:25:43;;;;;;;1.97;1.77;;;22.00;99.90;;;;;;4936488;29;20202;-60
2021/07/12 07:28:10;;;;;;;2.57;2.07;;;22.10;99.90;;;;;;4937978;29;20194;-60
2021/07/12 07:30:39;;;;;;;5.47;2.20;;;22.30;99.90;;;;;;4937783;29;20185;-60
2021/07/12 07:33:11;;;;;;;2.80;2.53;;;22.40;99.90;;;;;;4938551;29;20411;-58
2021/07/12 07:35:36;;;;;;;2.90;2.43;;;22.40;99.90;;;;;;4937598;29;20414;-60
2021/07/12 07:38:03;;;;;;;2.70;2.07;;;22.40;99.90;;;;;;4938275;29;20406;-60
2021/07/12 07:40:29;;;;;;;2.43;2.23;;;22.20;99.90;;;;;;4937968;29;20191;-60
2021/07/12 07:42:54;;;;;;;2.10;1.90;;;21.90;99.90;;;;;;4938238;29;20542;-60
2021/07/12 07:45:20;;;;;;;2.43;2.23;;;21.80;99.90;;;;;;4936233;29;20254;-59
2021/07/12 07:47:47;;;;;;;2.43;2.20;;;21.90;99.90;;;;;;4937246;29;20174;-61
2021/07/12 07:50:14;;;;;;;2.40;2.20;;;22.10;99.90;;;;;;4922810;29;20194;-60
2021/07/12 07:52:40;;;;;;;3.27;2.13;;;22.10;99.90;;;;;;4958291;23;20489;-65
2021/07/12 07:55:08;;;;;;;3.60;2.50;;;22.20;99.90;;;;;;4949978;28;20427;-65
2021/07/12 07:57:38;;;;;;;2.60;2.40;;;22.20;99.90;;;;;;4937771;29;20785;-65
2021/07/12 08:00:15;;;;;;;3.67;2.60;;;22.10;99.90;;;;;;4937316;29;20415;-65
2021/07/12 08:02:41;;;;;;;2.33;2.13;;;22.20;99.90;;;;;;4937668;29;20431;-65
2021/07/12 08:05:07;;;;;;;3.13;2.40;;;22.00;99.90;;;;;;4937477;29;20822;-64
2021/07/12 08:10:00;;;;;;;3.73;1.97;;;22.40;99.90;;;;;;4934669;29;20463;-65
2021/07/12 08:12:26;;;;;;;2.27;1.97;;;22.60;99.90;;;;;;4937350;29;20399;-64
2021/07/12 08:14:52;;;;;;;1.90;1.70;;;22.60;99.90;;;;;;4937624;29;20182;-64
2021/07/12 08:17:17;;;;;;;2.83;2.30;;;22.70;99.90;;;;;;4937678;29;20174;-65
2021/07/12 08:19:43;;;;;;;4.43;2.10;;;22.90;99.90;;;;;;4937024;29;20257;-65
2021/07/12 08:22:08;;;;;;;3.27;2.27;;;22.80;99.90;;;;;;4937450;29;20182;-65
2021/07/12 08:24:34;;;;;;;3.30;2.00;;;22.70;99.90;;;;;;4936533;29;20191;-65
2021/07/12 08:27:01;;;;;;;2.10;1.90;;;22.70;99.90;;;;;;4937666;29;20206;-65
2021/07/12 08:29:27;;;;;;;2.77;1.80;;;22.80;99.90;;;;;;4937303;29;20437;-65
2021/07/12 08:31:53;;;;;;;2.43;2.23;;;23.10;99.90;;;;;;4937266;29;20402;-65
2021/07/12 08:34:18;;;;;;;2.67;1.80;;;23.30;99.90;;;;;;4937244;29;20199;-65
2021/07/12 08:36:44;;;;;;;2.43;2.20;;;23.20;99.90;;;;;;4937034;29;20167;-65
2021/07/12 08:39:10;;;;;;;3.90;2.30;;;23.20;99.90;;;;;;4924913;29;20661;-66
2021/07/12 08:41:37;;;;;;;2.50;2.30;;;23.30;99.90;;;;;;4917710;29;20227;-64
2021/07/12 08:44:04;;;;;;;1.93;1.80;;;23.50;99.90;;;;;;4967616;23;20296;-60
2021/07/12 08:46:29;;;;;;;2.60;2.00;;;23.30;99.90;;;;;;4940327;28;20437;-60
2021/07/12 08:48:55;;;;;;;1.83;1.73;;;23.30;99.90;;;;;;4935354;29;20849;-59
2021/07/12 08:51:21;;;;;;;3.37;1.47;;;23.40;99.90;;;;;;4936688;29;20170;-59
2021/07/12 08:53:47;;;;;;;2.40;2.13;;;23.50;99.90;;;;;;4922025;29;20199;-59
2021/07/12 08:56:13;;;;;;;1.63;1.50;;;23.60;99.90;;;;;;4946573;23;20230;-64
2021/07/12 08:58:39;;;;;;;1.90;1.50;;;23.70;99.90;;;;;;4936413;29;20478;-65
2021/07/12 09:01:08;;;;;;;2.40;1.90;;;23.80;99.90;;;;;;4936780;29;20764;-65
2021/07/12 09:03:40;;;;;;;1.63;1.47;;;23.60;99.90;;;;;;4934803;29;20230;-65
2021/07/12 09:06:15;;;;;;;2.70;1.40;;;23.50;99.90;;;;;;4934805;29;20468;-65
2021/07/12 09:08:49;;;;;;;2.13;1.93;;;23.90;99.90;;;;;;4917958;29;20424;-66
2021/07/12 09:11:43;;;;;;;1.87;1.77;;;24.10;99.90;;;;;;4898250;29;20427;-64
2021/07/12 09:14:08;;;;;;;1.87;1.57;;;24.20;99.90;;;;;;4948445;23;21044;-60
2021/07/12 09:16:48;;;;;;;3.90;1.70;;;24.50;99.90;;;;;;4948405;29;20410;-59
2021/07/12 09:19:20;;;;;;;1.70;1.60;;;24.60;99.90;;;;;;4955957;28;20150;-59
2021/07/12 09:21:49;;;;;;;1.90;1.80;;;24.60;99.90;;;;;;4955219;28;20910;-59
2021/07/12 09:24:26;;;;;;;1.70;1.60;;;24.60;99.90;;;;;;4966863;28;20531;-59
2021/07/12 09:27:19;;;;;;;2.33;2.00;;;24.50;99.90;;;;;;4974771;28;20476;-59
2021/07/12 09:30:07;;;;;;;2.20;1.80;;;24.60;99.90;;;;;;4993147;23;20488;-64
2021/07/12 09:32:36;;;;;;;3.60;1.80;;;24.70;99.90;;;;;;4964958;28;20825;-65
2021/07/12 09:35:11;;;;;;;2.80;1.73;;;24.70;99.90;;;;;;4974275;28;20412;-66
2021/07/12 09:37:40;;;;;;;1.90;1.40;;;24.80;99.90;;;;;;4974597;28;20399;-64
2021/07/12 09:40:14;;;;;;;1.83;1.70;;;24.90;99.90;;;;;;4965458;28;20429;-65
2021/07/12 09:42:47;;;;;;;1.50;1.40;;;25.00;99.90;;;;;;4953754;29;20418;-65
2021/07/12 09:45:18;;;;;;;2.43;1.63;;;25.00;99.90;;;;;;4954297;28;20497;-65
2021/07/12 09:47:45;;;;;;;2.97;1.63;;;25.20;99.90;;;;;;4969947;23;20500;-61
2021/07/12 09:50:16;;;;;;;1.67;1.57;;;25.50;99.90;;;;;;4948642;29;20444;-59
2021/07/12 09:52:46;;;;;;;1.90;1.80;;;25.70;99.90;;;;;;4936326;29;20461;-60
2021/07/12 09:55:24;;;;;;;2.00;1.80;;;25.90;99.90;;;;;;4949821;29;20476;-60
2021/07/12 09:58:15;;;;;;;1.73;1.60;;;26.00;99.90;;;;;;4954528;28;20417;-60
2021/07/12 10:00:51;;;;;;;2.20;1.57;;;26.00;99.90;;;;;;4977237;23;20397;-64
2021/07/12 10:03:18;;;;;;;2.20;2.00;;;26.20;99.90;;;;;;4927299;29;20489;-64
2021/07/12 10:05:45;;;;;;;2.40;2.20;;;26.30;99.90;;;;;;4918030;29;20414;-63
2021/07/12 10:08:12;;;;;;;2.10;1.90;;;26.30;99.90;;;;;;4954751;29;20406;-64
2021/07/12 10:10:38;;;;;;;2.37;1.60;;;26.50;99.90;;;;;;4954482;28;20402;-64
2021/07/12 10:13:04;;;;;;;2.07;1.87;;;26.50;99.90;;;;;;4954350;29;20492;-64
2021/07/12 10:15:30;;;;;;;2.33;1.80;;;26.90;99.90;;;;;;4954772;29;20193;-64
2021/07/12 10:17:57;;;;;;;1.77;1.50;;;27.00;99.90;;;;;;4955633;28;20790;-64
2021/07/12 10:20:23;;;;;;;2.53;1.70;;;26.80;99.90;;;;;;4958758;29;20643;-63
2021/07/12 10:22:50;;;;;;;1.53;1.43;;;27.00;99.90;;;;;;4957809;28;20816;-64
2021/07/12 10:25:18;;;;;;;1.97;1.77;;;27.30;99.90;;;;;;4957152;29;20452;-65
2021/07/12 10:27:52;;;;;;;3.83;1.90;;;27.60;99.10;;;;;;4958223;29;20417;-64
2021/07/12 10:30:34;;;;;;;2.10;1.90;;;27.40;99.70;;;;;;4958192;29;20445;-64
2021/07/12 10:33:02;;;;;;;1.87;1.77;;;27.60;99.50;;;;;;4958280;29;20888;-64
2021/07/12 10:35:48;;;;;;;1.93;1.73;;;27.60;98.60;;;;;;4946044;29;20441;-64
2021/07/12 10:38:15;;;;;;;1.80;1.70;;;27.70;99.20;;;;;;4938837;29;20473;-64
2021/07/12 10:40:52;;;;;;;2.40;1.60;;;27.80;99.00;;;;;;4939028;29;20411;-64
2021/07/12 10:43:44;;;;;;;1.60;1.50;;;27.70;99.70;;;;;;4938918;29;20446;-64
2021/07/12 10:46:31;;;;;;;1.60;1.50;;;27.60;98.70;;;;;;4939108;29;20428;-63
2021/07/12 10:48:59;;;;;;;1.60;1.50;;;27.90;98.60;;;;;;4937497;29;20931;-63
2021/07/12 10:51:28;;;;;;;3.17;1.63;;;27.70;97.60;;;;;;4938698;29;20434;-64
2021/07/12 10:54:09;;;;;;;2.90;2.00;;;27.30;98.30;;;;;;4939046;29;20418;-64
2021/07/12 10:56:44;;;;;;;1.93;1.70;;;27.40;98.00;;;;;;4938730;29;20402;-64
2021/07/12 10:59:33;;;;;;;3.57;1.63;;;27.50;97.60;;;;;;4938652;29;20414;-64
2021/07/12 11:02:01;;;;;;;1.70;1.57;;;27.60;98.20;;;;;;4938058;29;20449;-64
2021/07/12 11:04:50;;;;;;;2.07;1.67;;;27.80;99.10;;;;;;4938014;29;20545;-64
2021/07/12 11:07:19;;;;;;;1.93;1.73;;;27.90;98.40;;;;;;4938857;29;20751;-63
2021/07/12 11:09:53;;;;;;;2.00;1.47;;;28.00;97.50;;;;;;4938645;29;20406;-63
2021/07/12 11:12:34;;;;;;;2.00;1.50;;;28.10;96.60;;;;;;4938463;29;20430;-64
2021/07/12 11:15:09;;;;;;;1.87;1.47;;;28.00;97.00;;;;;;4938614;29;20757;-64
2021/07/12 11:18:08;;;;;;;1.90;1.67;;;27.80;96.70;;;;;;4939363;29;20906;-64
2021/07/12 11:21:06;;;;;;;2.40;1.63;;;27.80;97.30;;;;;;4925869;28;20421;-64
2021/07/12 11:23:42;;;;;;;2.70;1.57;;;28.30;97.10;;;;;;4954522;28;20469;-65
2021/07/12 11:26:20;;;;;;;1.80;1.70;;;28.50;96.40;;;;;;4957531;29;20432;-64
2021/07/12 11:28:48;;;;;;;1.90;1.73;;;28.50;95.50;;;;;;4956879;28;20783;-64
2021/07/12 11:31:38;;;;;;;2.90;1.57;;;28.90;96.70;;;;;;4957001;28;20444;-64
2021/07/12 11:34:06;;;;;;;1.93;1.73;;;29.10;95.10;;;;;;4956548;29;20402;-64
2021/07/12 11:36:32;;;;;;;2.00;1.80;;;29.50;94.50;;;;;;4948432;29;20812;-63
2021/07/12 11:38:57;;;;;;;2.07;1.57;;;30.30;93.00;;;;;;4937848;29;20415;-64
2021/07/12 11:41:24;;;;;;;2.03;1.60;;;31.30;90.90;;;;;;4938052;29;20214;-65
2021/07/12 11:44:10;;;;;;;6.50;1.80;;;31.60;90.80;;;;;;4938019;29;20241;-65
2021/07/12 11:46:36;;;;;;;1.40;1.30;;;32.50;88.00;;;;;;4937792;29;20403;-65
2021/07/12 11:49:09;;;;;;;1.57;1.47;;;31.90;87.40;;;;;;4937180;29;20816;-65
2021/07/12 11:51:35;;;;;;;2.37;1.90;;;32.70;85.80;;;;;;4937483;29;20437;-65
2021/07/12 11:54:02;;;;;;;2.07;1.97;;;33.70;82.40;;;;;;4937851;29;20417;-65
2021/07/12 11:56:28;;;;;;;1.77;1.50;;;33.70;79.30;;;;;;4937889;29;20414;-65
2021/07/12 11:59:00;;;;;;;1.90;1.70;;;32.80;80.20;;;;;;4938034;29;20911;-65
2021/07/12 12:01:26;;;;;;;1.50;1.40;;;31.90;85.50;;;;;;4937708;29;20265;-65
2021/07/12 12:04:02;;;;;;;2.23;1.80;;;32.00;84.10;;;;;;4936983;29;20868;-64
2021/07/12 12:06:29;;;;;;;1.63;1.50;;;32.30;84.30;;;;;;4937549;29;20410;-65
2021/07/12 12:08:59;;;;;;;1.57;1.47;;;32.30;81.80;;;;;;4937472;29;20411;-65
2021/07/12 12:11:30;;;;;;;1.53;1.43;;;31.40;85.30;;;;;;4937185;29;20886;-65
2021/07/12 12:13:55;;;;;;;2.37;1.60;;;31.40;86.40;;;;;;4937645;29;20450;-65
2021/07/12 12:16:26;;;;;;;3.30;1.90;;;32.60;80.90;;;;;;4937148;29;20833;-65
2021/07/12 12:18:54;;;;;;;2.03;1.40;;;33.70;78.20;;;;;;4948255;29;20625;-66
2021/07/12 12:21:21;;;;;;;2.27;1.77;;;35.30;74.30;;;;;;4956548;28;20434;-64
2021/07/12 12:23:47;;;;;;;1.70;1.60;;;36.10;73.70;;;;;;4956347;29;20461;-64
2021/07/12 12:26:17;;;;;;;1.90;1.60;;;36.80;71.70;;;;;;4956386;29;20480;-64
2021/07/12 12:28:54;;;;;;;1.67;1.57;;;37.00;67.00;;;;;;4956467;29;20593;-64
2021/07/12 12:31:26;;;;;;;2.13;1.73;;;36.20;69.70;;;;;;4955981;28;20433;-64
2021/07/12 12:34:04;;;;;;;1.53;1.43;;;35.00;69.60;;;;;;4955013;29;20754;-63
2021/07/12 12:36:32;;;;;;;1.87;1.33;;;34.20;71.20;;;;;;4918030;29;20506;-65
2021/07/12 12:39:03;;;;;;;4.00;1.50;;;34.00;70.50;;;;;;4917909;29;20949;-64
2021/07/12 12:41:31;;;;;;;1.47;1.37;;;33.60;73.20;;;;;;4917208;29;20785;-65
2021/07/12 12:44:09;;;;;;;1.70;1.60;;;33.50;71.70;;;;;;4917722;29;20455;-66
2021/07/12 12:46:49;;;;;;;2.00;1.30;;;34.50;69.50;;;;;;4917762;29;20410;-65
2021/07/12 12:49:22;;;;;;;1.77;1.67;;;34.50;70.20;;;;;;4943836;29;20828;-64
2021/07/12 12:51:52;;;;;;;1.60;1.40;;;33.80;71.40;;;;;;4954869;28;20473;-65
2021/07/12 12:54:19;;;;;;;1.50;1.40;;;34.70;71.00;;;;;;4946222;29;20511;-65
2021/07/12 12:56:50;;;;;;;1.40;1.30;;;35.80;67.40;;;;;;4927748;29;20418;-65
2021/07/12 12:59:17;;;;;;;1.70;1.53;;;37.00;63.20;;;;;;4936751;29;20927;-65
2021/07/12 13:01:45;;;;;;;1.43;1.33;;;37.20;61.40;;;;;;4938172;28;20473;-66
2021/07/12 13:04:19;;;;;;;1.40;1.30;;;36.60;62.40;;;;;;4936849;29;20822;-65
2021/07/12 13:06:49;;;;;;;1.43;1.33;;;35.30;64.60;;;;;;4936295;29;20421;-65